createdAt,value
2022-09-01T00:01:55.972Z,8.50
2022-09-01T00:04:03.166Z,8.15
2022-09-01T00:06:09.473Z,8.25
2022-09-01T00:08:12.125Z,8.73
2022-09-01T00:10:20.736Z,8.38
2022-09-01T00:12:25.688Z,8.10
2022-09-01T00:14:31.301Z,8.25
2022-09-01T00:16:34.477Z,8.02
2022-09-01T00:18:37.293Z,7.97
2022-09-01T00:20:41.238Z,8.77
2022-09-01T00:22:43.826Z,8.38
2022-09-01T00:24:46.774Z,8.38
2022-09-01T00:26:50.298Z,8.55
2022-09-01T00:28:53.057Z,7.85
2022-09-01T00:30:55.728Z,9.02
2022-09-01T00:32:58.419Z,8.48
2022-09-01T00:35:01.017Z,9.45
2022-09-01T00:37:05.189Z,9.23
2022-09-01T00:39:08.339Z,8.32
2022-09-01T00:41:14.333Z,8.15
2022-09-01T00:43:22.366Z,8.55
2022-09-01T00:45:25.116Z,9.00
2022-09-01T00:47:27.688Z,9.98
2022-09-01T00:49:35.061Z,8.77
2022-09-01T00:51:40.081Z,9.05
2022-09-01T00:53:45.690Z,8.50
2022-09-01T00:55:48.378Z,9.90
2022-09-01T00:57:51.276Z,10.15
2022-09-01T00:59:58.463Z,9.63
2022-09-01T01:02:01.134Z,9.27
2022-09-01T01:04:05.212Z,9.00
2022-09-01T01:06:09.413Z,10.25
2022-09-01T01:08:12.065Z,8.70
2022-09-01T01:10:18.267Z,9.50
2022-09-01T01:12:21.676Z,8.57
2022-09-01T01:14:24.284Z,9.95
2022-09-01T01:16:29.453Z,9.82
2022-09-01T01:18:32.357Z,10.05
2022-09-01T01:20:53.249Z,9.65
2022-09-01T01:23:10.739Z,9.60
2022-09-01T01:25:14.968Z,10.00
2022-09-01T01:27:21.855Z,9.80
2022-09-01T01:29:24.979Z,10.65
2022-09-01T01:31:27.547Z,8.77
2022-09-01T01:33:33.770Z,8.73
2022-09-01T01:35:37.499Z,9.15
2022-09-01T01:37:40.125Z,9.52
2022-09-01T01:39:44.733Z,9.85
2022-09-01T01:41:50.768Z,9.20
2022-09-01T01:43:53.373Z,9.75
2022-09-01T01:46:02.392Z,9.93
2022-09-01T01:48:08.495Z,10.20
2022-09-01T01:50:11.461Z,9.68
2022-09-01T01:52:17.605Z,11.20
2022-09-01T01:54:20.185Z,9.52
2022-09-01T01:56:25.616Z,9.57
2022-09-01T01:58:30.341Z,9.05
2022-09-01T02:00:34.586Z,10.35
2022-09-01T02:02:38.639Z,9.75
2022-09-01T02:04:42.382Z,8.30
2022-09-01T02:06:46.228Z,9.50
2022-09-01T02:08:48.804Z,8.73
2022-09-01T02:10:54.657Z,8.85
2022-09-01T02:12:58.054Z,8.90
2022-09-01T02:15:04.652Z,9.10
2022-09-01T02:17:08.143Z,8.70
2022-09-01T02:19:12.252Z,8.90
2022-09-01T02:21:19.624Z,9.68
2022-09-01T02:23:24.491Z,12.95
2022-09-01T02:25:27.473Z,12.75
2022-09-01T02:27:30.054Z,13.00
2022-09-01T02:29:33.249Z,11.48
2022-09-01T02:31:44.632Z,12.20
2022-09-01T02:33:47.507Z,12.05
2022-09-01T02:35:54.131Z,10.95
2022-09-01T02:38:00.996Z,10.00
2022-09-01T02:40:04.179Z,10.57
2022-09-01T02:42:08.490Z,10.30
2022-09-01T02:44:12.666Z,10.27
2022-09-01T02:46:16.553Z,10.38
2022-09-01T02:48:24.473Z,9.65
2022-09-01T02:50:27.349Z,9.30
2022-09-01T02:52:37.519Z,8.77
2022-09-01T02:54:40.134Z,9.95
2022-09-01T02:56:42.706Z,8.93
2022-09-01T02:58:46.937Z,9.25
2022-09-01T03:00:54.162Z,9.63
2022-09-01T03:02:58.873Z,9.45
2022-09-01T03:05:02.909Z,9.27
2022-09-01T03:07:08.841Z,9.65
2022-09-01T03:09:14.740Z,9.45
2022-09-01T03:11:18.508Z,9.80
2022-09-01T03:13:23.716Z,9.38
2022-09-01T03:15:27.456Z,9.20
2022-09-01T03:17:30.024Z,9.18
2022-09-01T03:19:41.888Z,8.35
2022-09-01T03:23:52.080Z,8.80
2022-09-01T03:25:54.942Z,8.48
2022-09-01T03:28:03.029Z,8.88
2022-09-01T03:30:06.754Z,8.38
2022-09-01T03:32:09.431Z,9.10
2022-09-01T03:34:12.552Z,8.50
2022-09-01T03:36:19.327Z,8.40
2022-09-01T03:38:24.539Z,8.90
2022-09-01T03:40:30.022Z,8.23
2022-09-01T03:42:32.709Z,8.52
2022-09-01T03:44:40.206Z,9.50
2022-09-01T03:46:43.603Z,9.35
2022-09-01T03:48:47.815Z,9.10
2022-09-01T03:50:50.861Z,8.57
2022-09-01T03:52:56.658Z,9.13
2022-09-01T03:55:00.633Z,8.98
2022-09-01T03:57:05.981Z,8.48
2022-09-01T03:59:08.742Z,9.25
2022-09-01T04:01:13.582Z,9.60
2022-09-01T04:03:28.448Z,9.25
2022-09-01T04:05:33.949Z,9.88
2022-09-01T04:07:36.520Z,11.07
2022-09-01T04:09:39.851Z,11.23
2022-09-01T04:11:46.284Z,9.85
2022-09-01T04:13:48.993Z,10.38
2022-09-01T04:15:51.591Z,10.43
2022-09-01T04:18:09.665Z,10.30
2022-09-01T04:20:12.960Z,11.05
2022-09-01T04:22:17.598Z,10.43
2022-09-01T04:24:21.032Z,9.95
2022-09-01T04:26:26.785Z,9.98
2022-09-01T04:28:37.390Z,9.90
2022-09-01T04:30:40.724Z,10.20
2022-09-01T04:32:46.875Z,10.00
2022-09-01T04:34:49.729Z,10.00
2022-09-01T04:36:56.762Z,10.00
2022-09-01T04:39:08.756Z,10.65
2022-09-01T04:41:17.712Z,9.75
2022-09-01T04:43:20.459Z,10.02
2022-09-01T04:45:25.249Z,9.68
2022-09-01T04:47:35.263Z,10.40
2022-09-01T04:49:38.578Z,10.55
2022-09-01T04:51:42.003Z,10.00
2022-09-01T04:53:48.695Z,9.63
2022-09-01T04:55:52.465Z,9.93
2022-09-01T04:57:55.807Z,9.93
2022-09-01T04:59:58.507Z,10.10
2022-09-01T05:02:02.496Z,10.10
2022-09-01T05:04:05.249Z,10.07
2022-09-01T05:06:14.665Z,11.00
2022-09-01T05:08:23.935Z,10.60
2022-09-01T05:10:29.954Z,11.07
2022-09-01T05:12:32.740Z,11.32
2022-09-01T05:14:35.335Z,12.38
2022-09-01T05:16:38.924Z,12.20
2022-09-01T05:18:47.745Z,12.02
2022-09-01T05:20:53.031Z,10.77
2022-09-01T05:22:57.471Z,11.15
2022-09-01T05:25:13.134Z,11.10
2022-09-01T05:27:16.003Z,13.10
2022-09-01T05:29:19.008Z,12.70
2022-09-01T05:31:22.027Z,11.40
2022-09-01T05:33:24.617Z,12.07
2022-09-01T05:35:32.864Z,12.27
2022-09-01T05:37:38.004Z,13.25
2022-09-01T05:39:40.591Z,13.23
2022-09-01T05:41:43.794Z,13.90
2022-09-01T05:43:55.084Z,15.15
2022-09-01T05:46:11.280Z,13.27
2022-09-01T05:48:21.816Z,13.38
2022-09-01T05:50:24.489Z,13.50
2022-09-01T05:52:31.624Z,14.32
2022-09-01T05:54:34.861Z,14.27
2022-09-01T05:56:43.511Z,15.13
2022-09-01T06:01:13.341Z,16.17
2022-09-01T06:03:17.726Z,16.15
2022-09-01T06:05:20.892Z,16.05
2022-09-01T06:07:26.668Z,17.10
2022-09-01T06:09:30.671Z,16.70
2022-09-01T06:11:33.312Z,19.63
2022-09-01T06:13:35.884Z,20.45
2022-09-01T06:15:39.486Z,19.77
2022-09-01T06:17:43.825Z,21.27
2022-09-01T06:19:46.737Z,20.60
2022-09-01T06:21:49.373Z,21.27
2022-09-01T06:23:54.001Z,20.38
2022-09-01T06:26:01.704Z,20.45
2022-09-01T06:28:04.928Z,21.08
2022-09-01T06:30:15.057Z,20.20
2022-09-01T06:32:19.308Z,19.90
2022-09-01T06:34:22.349Z,20.75
2022-09-01T06:36:26.026Z,20.05
2022-09-01T06:38:29.396Z,18.02
2022-09-01T06:40:32.398Z,20.42
2022-09-01T06:42:37.794Z,17.35
2022-09-01T06:44:41.182Z,19.27
2022-09-01T06:46:43.858Z,19.45
2022-09-01T06:48:47.343Z,20.50
2022-09-01T06:53:34.323Z,18.55
2022-09-01T06:55:39.099Z,21.02
2022-09-01T07:00:18.812Z,21.73
2022-09-01T07:02:26.913Z,20.65
2022-09-01T07:04:31.399Z,20.17
2022-09-01T07:16:33.869Z,19.67
2022-09-01T07:18:38.182Z,19.77
2022-09-01T07:23:07.080Z,20.40
2022-09-01T07:25:12.875Z,20.45
2022-09-01T07:27:15.911Z,20.20
2022-09-01T07:29:25.700Z,19.88
2022-09-01T07:34:38.526Z,18.70
2022-09-01T07:36:26.820Z,19.45
2022-09-01T07:42:59.234Z,21.13
2022-09-01T07:43:22.265Z,18.48
2022-09-01T07:45:26.924Z,18.73
2022-09-01T07:50:24.283Z,19.25
2022-09-01T07:52:17.444Z,18.08
2022-09-01T07:54:25.499Z,17.92
2022-09-01T07:56:30.171Z,18.65
2022-09-01T07:58:33.599Z,17.50
2022-09-01T08:00:38.087Z,18.20
2022-09-01T08:02:40.824Z,18.23
2022-09-01T08:04:43.430Z,18.17
2022-09-01T08:06:46.012Z,19.00
2022-09-01T08:08:50.775Z,17.58
2022-09-01T08:10:53.402Z,18.00
2022-09-01T08:12:56.860Z,16.92
2022-09-01T08:15:40.490Z,17.38
2022-09-01T08:19:47.007Z,17.13
2022-09-01T08:21:49.659Z,19.45
2022-09-01T08:23:54.109Z,19.02
2022-09-01T08:25:56.722Z,16.50
2022-09-01T08:28:00.648Z,16.92
2022-09-01T08:30:04.651Z,16.58
2022-09-01T08:32:08.422Z,15.70
2022-09-01T08:34:12.635Z,15.55
2022-09-01T08:36:21.549Z,13.35
2022-09-01T08:38:26.437Z,13.70
2022-09-01T08:40:30.361Z,11.82
2022-09-01T08:42:45.760Z,13.52
2022-09-01T08:45:00.216Z,12.20
2022-09-01T08:47:07.024Z,13.20
2022-09-01T08:49:25.311Z,13.02
2022-09-01T08:51:36.152Z,11.40
2022-09-01T08:53:45.540Z,10.10
2022-09-01T08:55:51.808Z,9.85
2022-09-01T08:57:59.744Z,9.52
2022-09-01T09:00:02.702Z,9.60
2022-09-01T09:02:17.660Z,9.85
2022-09-01T09:04:38.261Z,9.73
2022-09-01T09:06:55.415Z,8.82
2022-09-01T09:08:59.694Z,9.20
2022-09-01T09:11:05.288Z,8.57
2022-09-01T09:13:13.384Z,8.30
2022-09-01T09:15:23.465Z,8.57
2022-09-01T09:17:31.006Z,8.98
2022-09-01T09:19:37.892Z,7.82
2022-09-01T09:21:42.769Z,8.10
2022-09-01T09:23:49.648Z,7.22
2022-09-01T09:25:52.312Z,6.70
2022-09-01T09:28:02.002Z,5.53
2022-09-01T09:30:11.187Z,5.95
2022-09-01T09:32:50.426Z,5.60
2022-09-01T09:34:40.292Z,4.88
2022-09-01T09:36:48.039Z,5.22
2022-09-01T09:39:11.994Z,4.32
2022-09-01T09:41:26.539Z,3.83
2022-09-01T09:43:32.863Z,3.75
2022-09-01T09:45:41.658Z,3.97
2022-09-01T09:47:46.645Z,4.45
2022-09-01T09:50:12.461Z,4.10
2022-09-01T09:52:19.039Z,4.03
2022-09-01T09:54:26.701Z,3.90
2022-09-01T09:56:29.327Z,4.15
2022-09-01T09:58:39.044Z,4.00
2022-09-01T10:00:44.721Z,4.10
2022-09-01T10:02:54.323Z,4.47
2022-09-01T10:04:59.313Z,4.57
2022-09-01T10:07:01.985Z,9.05
2022-09-01T10:09:07.026Z,7.93
2022-09-01T10:11:10.383Z,5.30
2022-09-01T10:13:15.658Z,6.22
2022-09-01T10:15:21.271Z,5.00
2022-09-01T10:17:30.442Z,3.85
2022-09-01T10:19:35.889Z,3.88
2022-09-01T10:21:42.096Z,3.75
2022-09-01T10:23:45.110Z,3.20
2022-09-01T10:25:51.105Z,4.07
2022-09-01T10:27:59.258Z,4.28
2022-09-01T10:30:20.141Z,3.50
2022-09-01T10:32:36.956Z,4.07
2022-09-01T10:34:42.685Z,3.65
2022-09-01T10:36:55.892Z,3.50
2022-09-01T10:39:05.008Z,3.20
2022-09-01T10:41:14.000Z,3.47
2022-09-01T10:43:45.078Z,3.40
2022-09-01T10:45:53.335Z,4.00
2022-09-01T10:48:33.296Z,3.40
2022-09-01T10:50:36.517Z,3.22
2022-09-01T10:53:01.764Z,3.58
2022-09-01T10:55:07.407Z,3.42
2022-09-01T10:57:12.666Z,3.50
2022-09-01T10:59:40.330Z,3.40
2022-09-01T11:02:35.291Z,3.60
2022-09-01T11:05:24.706Z,3.58
2022-09-01T11:07:56.587Z,3.63
2022-09-01T11:10:34.729Z,3.83
2022-09-01T11:12:48.790Z,3.88
2022-09-01T11:14:54.833Z,3.80
2022-09-01T11:17:15.540Z,3.72
2022-09-01T11:19:44.505Z,4.03
2022-09-01T11:21:48.379Z,3.67
2022-09-01T11:23:52.749Z,3.45
2022-09-01T11:28:38.542Z,3.83
2022-09-01T11:30:52.015Z,3.70
2022-09-01T11:33:03.373Z,3.53
2022-09-01T11:35:16.583Z,3.83
2022-09-01T11:37:23.302Z,3.38
2022-09-01T11:39:33.466Z,3.25
2022-09-01T11:41:55.861Z,3.60
2022-09-01T11:44:01.848Z,3.33
2022-09-01T11:46:14.984Z,3.38
2022-09-01T11:48:18.427Z,3.70
2022-09-01T11:50:24.968Z,4.32
2022-09-01T11:52:32.121Z,3.72
2022-09-01T11:54:41.268Z,3.70
2022-09-01T11:56:45.263Z,3.78
2022-09-01T11:58:47.904Z,3.15
2022-09-01T12:00:50.504Z,3.92
2022-09-01T12:02:57.144Z,3.40
2022-09-01T12:05:02.019Z,3.92
2022-09-01T12:07:10.807Z,3.45
2022-09-01T12:09:13.780Z,3.65
2022-09-01T12:11:22.424Z,3.83
2022-09-01T12:13:26.374Z,4.15
2022-09-01T12:15:30.655Z,3.92
2022-09-01T12:17:33.288Z,3.70
2022-09-01T12:19:38.544Z,3.60
2022-09-01T12:21:44.716Z,3.42
2022-09-01T12:23:47.632Z,3.67
2022-09-01T12:25:50.476Z,3.25
2022-09-01T12:27:53.570Z,3.63
2022-09-01T12:29:58.765Z,3.63
2022-09-01T12:32:02.270Z,3.30
2022-09-01T12:34:04.993Z,3.20
2022-09-01T12:36:23.765Z,2.97
2022-09-01T12:38:30.627Z,3.58
2022-09-01T12:40:36.359Z,3.13
2022-09-01T12:42:41.556Z,3.30
2022-09-01T12:44:51.350Z,3.15
2022-09-01T12:46:55.596Z,3.40
2022-09-01T12:49:17.702Z,2.80
2022-09-01T12:51:26.504Z,3.10
2022-09-01T12:53:36.508Z,2.58
2022-09-01T12:55:54.838Z,3.10
2022-09-01T12:57:59.961Z,2.97
2022-09-01T13:00:18.026Z,3.08
2022-09-01T13:02:36.243Z,3.50
2022-09-01T13:04:38.932Z,3.50
2022-09-01T13:06:41.854Z,2.97
2022-09-01T13:08:44.627Z,3.03
2022-09-01T13:10:49.317Z,3.70
2022-09-01T13:12:52.669Z,3.55
2022-09-01T13:14:55.240Z,3.55
2022-09-01T13:16:58.262Z,3.20
2022-09-01T13:19:26.562Z,3.17
2022-09-01T13:21:25.210Z,2.67
2022-09-01T13:23:27.920Z,2.90
2022-09-01T13:25:30.520Z,2.95
2022-09-01T13:27:33.116Z,3.10
2022-09-01T13:29:35.706Z,2.80
2022-09-01T13:32:16.072Z,2.90
2022-09-01T13:34:10.692Z,2.92
2022-09-01T13:38:45.977Z,2.97
2022-09-01T13:40:53.533Z,3.25
2022-09-01T13:42:56.185Z,3.17
2022-09-01T13:44:58.758Z,3.25
2022-09-01T13:47:28.665Z,3.17
2022-09-01T13:51:51.991Z,3.10
2022-09-01T13:53:55.104Z,3.03
2022-09-01T13:58:05.576Z,2.83
2022-09-01T14:00:11.695Z,2.80
2022-09-01T14:02:17.011Z,2.80
2022-09-01T14:04:22.902Z,3.10
2022-09-01T14:06:26.849Z,2.80
2022-09-01T14:08:30.724Z,3.30
2022-09-01T14:10:33.937Z,3.17
2022-09-01T14:12:36.646Z,2.67
2022-09-01T14:17:04.534Z,2.60
2022-09-01T14:19:07.192Z,2.50
2022-09-01T14:21:13.415Z,2.75
2022-09-01T14:23:18.112Z,2.60
2022-09-01T14:25:21.496Z,2.42
2022-09-01T14:27:24.108Z,2.90
2022-09-01T14:29:27.603Z,2.75
2022-09-01T14:31:30.499Z,2.35
2022-09-01T14:33:34.097Z,2.70
2022-09-01T14:35:38.947Z,2.35
2022-09-01T14:37:42.170Z,2.63
2022-09-01T14:39:50.384Z,2.90
2022-09-01T14:41:53.004Z,2.80
2022-09-01T14:44:02.338Z,2.85
2022-09-01T14:46:08.308Z,2.42
2022-09-01T14:48:11.247Z,3.17
2022-09-01T14:50:15.999Z,2.95
2022-09-01T14:52:22.101Z,2.95
2022-09-01T14:54:24.803Z,2.67
2022-09-01T14:56:30.057Z,2.72
2022-09-01T14:58:33.206Z,3.33
2022-09-01T15:00:37.008Z,3.00
2022-09-01T15:02:40.960Z,2.90
2022-09-01T15:04:43.634Z,2.85
2022-09-01T15:06:46.275Z,3.42
2022-09-01T15:08:49.498Z,3.25
2022-09-01T15:10:52.023Z,3.13
2022-09-01T15:12:58.671Z,2.75
2022-09-01T15:15:02.485Z,2.92
2022-09-01T15:17:06.999Z,3.17
2022-09-01T15:19:12.673Z,2.70
2022-09-01T15:21:20.399Z,3.05
2022-09-01T15:23:25.539Z,3.00
2022-09-01T15:25:28.148Z,3.28
2022-09-01T15:27:30.705Z,3.10
2022-09-01T15:29:36.836Z,3.25
2022-09-01T15:31:39.900Z,3.03
2022-09-01T15:33:43.154Z,3.20
2022-09-01T15:35:46.596Z,2.97
2022-09-01T15:37:50.090Z,3.10
2022-09-01T15:39:52.630Z,3.30
2022-09-01T15:41:55.230Z,3.08
2022-09-01T15:43:58.941Z,3.70
2022-09-01T15:46:05.425Z,3.30
2022-09-01T15:48:08.245Z,3.55
2022-09-01T15:50:16.843Z,3.45
2022-09-01T15:52:24.758Z,3.15
2022-09-01T15:54:30.501Z,3.60
2022-09-01T15:56:33.475Z,2.92
2022-09-01T15:58:57.527Z,3.08
2022-09-01T16:01:00.098Z,3.15
2022-09-01T16:03:04.415Z,2.92
2022-09-01T16:05:08.276Z,3.55
2022-09-01T16:07:10.921Z,3.13
2022-09-01T16:09:14.610Z,3.97
2022-09-01T16:11:17.391Z,3.20
2022-09-01T16:13:20.604Z,2.92
2022-09-01T16:15:25.463Z,2.80
2022-09-01T16:17:43.680Z,3.30
2022-09-01T16:19:55.956Z,3.20
2022-09-01T16:22:06.940Z,3.30
2022-09-01T16:24:13.067Z,3.38
2022-09-01T16:26:17.984Z,3.28
2022-09-01T16:28:27.619Z,3.50
2022-09-01T16:30:30.904Z,3.40
2022-09-01T16:32:33.703Z,3.40
2022-09-01T16:34:47.156Z,3.83
2022-09-01T16:36:57.502Z,3.75
2022-09-01T16:39:05.145Z,3.60
2022-09-01T16:41:13.808Z,3.55
2022-09-01T16:43:25.656Z,3.05
2022-09-01T16:45:43.159Z,2.67
2022-09-01T16:47:56.418Z,3.25
2022-09-01T16:50:06.854Z,3.40
2022-09-01T16:52:19.053Z,3.40
2022-09-01T16:54:30.804Z,3.08
2022-09-01T16:56:36.580Z,3.60
2022-09-01T16:58:47.174Z,3.45
2022-09-01T17:00:59.041Z,3.50
2022-09-01T17:03:10.042Z,3.60
2022-09-01T17:05:25.318Z,3.53
2022-09-01T17:07:38.276Z,3.33
2022-09-01T17:09:43.888Z,3.70
2022-09-01T17:11:52.771Z,3.28
2022-09-01T17:13:58.102Z,3.30
2022-09-01T17:16:07.883Z,3.28
2022-09-01T17:18:22.978Z,3.20
2022-09-01T17:20:30.097Z,3.20
2022-09-01T17:22:37.329Z,3.42
2022-09-01T17:24:42.722Z,3.72
2022-09-01T17:26:50.726Z,3.80
2022-09-01T17:28:58.600Z,3.53
2022-09-01T17:31:14.256Z,3.30
2022-09-01T17:33:24.542Z,3.67
2022-09-01T17:35:37.685Z,3.10
2022-09-01T17:37:56.355Z,4.47
2022-09-01T17:40:10.770Z,2.83
2022-09-01T17:42:24.932Z,3.78
2022-09-01T17:44:37.185Z,3.88
2022-09-01T17:46:44.509Z,3.47
2022-09-01T17:48:52.955Z,3.72
2022-09-01T17:51:03.516Z,3.67
2022-09-01T17:53:22.227Z,3.42
2022-09-01T17:55:40.381Z,3.60
2022-09-01T17:57:47.725Z,3.40
2022-09-01T17:59:57.563Z,3.70
2022-09-01T18:02:20.154Z,3.70
2022-09-01T18:04:40.103Z,3.92
2022-09-01T18:06:50.117Z,6.13
2022-09-01T18:08:58.129Z,3.95
2022-09-01T18:11:03.196Z,3.30
2022-09-01T18:13:08.093Z,3.65
2022-09-01T18:15:14.333Z,4.10
2022-09-01T18:17:23.534Z,3.58
2022-09-01T18:19:36.860Z,3.50
2022-09-01T18:21:49.299Z,6.05
2022-09-01T18:23:56.697Z,3.83
2022-09-01T18:26:07.336Z,3.50
2022-09-01T18:28:11.801Z,5.40
2022-09-01T18:30:22.361Z,4.72
2022-09-01T18:32:42.284Z,3.83
2022-09-01T18:35:02.876Z,4.55
2022-09-01T18:37:15.210Z,4.20
2022-09-01T18:39:28.111Z,3.95
2022-09-01T18:41:44.301Z,3.85
2022-09-01T18:43:55.487Z,4.05
2022-09-01T18:46:05.201Z,3.55
2022-09-01T18:48:19.872Z,4.03
2022-09-01T18:50:27.850Z,3.88
2022-09-01T18:52:50.355Z,3.90
2022-09-01T18:55:03.756Z,4.07
2022-09-01T18:57:07.882Z,4.13
2022-09-01T18:59:26.577Z,4.88
2022-09-01T19:01:50.236Z,4.50
2022-09-01T19:03:58.616Z,4.13
2022-09-01T19:06:20.807Z,5.00
2022-09-01T19:08:37.513Z,5.25
2022-09-01T19:10:45.861Z,6.72
2022-09-01T19:12:56.428Z,7.90
2022-09-01T19:15:11.571Z,8.10
2022-09-01T19:17:42.326Z,7.53
2022-09-01T19:19:49.758Z,7.68
2022-09-01T19:21:55.833Z,7.47
2022-09-01T19:24:03.152Z,6.70
2022-09-01T19:26:11.956Z,7.15
2022-09-01T19:28:20.540Z,5.95
2022-09-01T19:30:23.273Z,6.85
2022-09-01T19:32:29.698Z,6.88
2022-09-01T19:34:37.332Z,7.35
2022-09-01T19:36:42.946Z,7.13
2022-09-01T19:38:45.593Z,6.65
2022-09-01T19:40:51.658Z,5.65
2022-09-01T19:43:03.125Z,5.85
2022-09-01T19:45:12.345Z,6.53
2022-09-01T19:47:21.713Z,7.07
2022-09-01T19:49:38.273Z,6.30
2022-09-01T19:51:46.856Z,5.07
2022-09-01T19:53:55.122Z,5.25
2022-09-01T19:56:03.357Z,5.45
2022-09-01T19:58:11.063Z,4.82
2022-09-01T20:00:16.377Z,4.70
2022-09-01T20:02:27.890Z,5.60
2022-09-01T20:04:40.300Z,5.82
2022-09-01T20:06:47.536Z,5.82
2022-09-01T20:08:57.385Z,5.60
2022-09-01T20:11:05.198Z,5.47
2022-09-01T20:13:27.122Z,5.03
2022-09-01T20:17:41.820Z,4.93
2022-09-01T20:19:50.599Z,5.53
2022-09-01T20:21:53.662Z,5.00
2022-09-01T20:24:01.134Z,5.15
2022-09-01T20:26:07.325Z,5.25
2022-09-01T20:28:20.771Z,5.72
2022-09-01T20:30:25.498Z,5.20
2022-09-01T20:32:33.734Z,5.43
2022-09-01T20:34:44.570Z,5.00
2022-09-01T20:36:51.603Z,4.85
2022-09-01T20:39:19.506Z,5.13
2022-09-01T20:41:28.815Z,5.30
2022-09-01T20:43:38.930Z,4.65
2022-09-01T20:45:42.632Z,4.97
2022-09-01T20:47:50.362Z,5.05
2022-09-01T20:49:53.084Z,4.57
2022-09-01T20:52:01.252Z,5.07
2022-09-01T20:54:16.035Z,5.05
2022-09-01T20:56:23.231Z,4.78
2022-09-01T20:58:36.819Z,4.88
2022-09-01T21:00:49.666Z,4.93
2022-09-01T21:03:01.438Z,5.07
2022-09-01T21:07:16.502Z,5.07
2022-09-01T21:09:31.463Z,4.72
2022-09-01T21:11:43.095Z,4.45
2022-09-01T21:13:57.446Z,4.93
2022-09-01T21:16:07.560Z,5.30
2022-09-01T21:18:27.175Z,4.97
2022-09-01T21:20:39.549Z,5.53
2022-09-01T21:22:42.125Z,5.13
2022-09-01T21:24:44.731Z,5.65
2022-09-01T21:26:48.926Z,5.22
2022-09-01T21:28:56.720Z,4.82
2022-09-01T21:31:00.601Z,5.32
2022-09-01T21:33:04.460Z,4.63
2022-09-01T21:35:09.821Z,5.57
2022-09-01T21:37:12.813Z,4.85
2022-09-01T21:39:15.466Z,5.30
2022-09-01T21:41:18.145Z,5.18
2022-09-01T21:43:23.775Z,5.05
2022-09-01T21:45:28.181Z,4.78
2022-09-01T21:47:33.776Z,5.15
2022-09-01T21:49:36.840Z,5.55
2022-09-01T21:51:39.473Z,5.25
2022-09-01T21:53:43.338Z,5.70
2022-09-01T21:55:46.250Z,5.93
2022-09-01T21:57:51.907Z,5.32
2022-09-01T21:59:54.488Z,5.93
2022-09-01T22:01:58.439Z,5.18
2022-09-01T22:04:01.397Z,5.03
2022-09-01T22:06:04.100Z,5.28
2022-09-01T22:08:06.940Z,6.18
2022-09-01T22:10:12.750Z,6.25
2022-09-01T22:12:15.847Z,6.32
2022-09-01T22:14:19.135Z,6.00
2022-09-01T22:16:22.403Z,6.15
2022-09-01T22:18:26.439Z,5.88
2022-09-01T22:20:31.901Z,5.32
2022-09-01T22:22:35.525Z,5.65
2022-09-01T22:24:38.096Z,5.32
2022-09-01T22:26:40.646Z,5.80
2022-09-01T22:28:43.338Z,5.20
2022-09-01T22:30:47.206Z,5.55
2022-09-01T22:32:49.826Z,5.35
2022-09-01T22:34:53.836Z,4.97
2022-09-01T22:36:56.402Z,5.38
2022-09-01T22:38:59.860Z,5.47
2022-09-01T22:41:02.483Z,5.18
2022-09-01T22:43:05.632Z,5.10
2022-09-01T22:45:10.247Z,5.10
2022-09-01T22:47:12.885Z,5.10
2022-09-01T22:49:15.576Z,4.82
2022-09-01T22:51:19.880Z,4.88
2022-09-01T22:53:23.463Z,4.50
2022-09-01T22:55:28.081Z,4.35
2022-09-01T22:57:30.894Z,5.18
2022-09-01T22:59:33.617Z,4.20
2022-09-01T23:01:38.827Z,4.18
2022-09-01T23:03:42.446Z,3.78
2022-09-01T23:05:46.307Z,4.00
2022-09-01T23:07:50.393Z,3.40
2022-09-01T23:09:53.015Z,3.78
2022-09-01T23:11:56.420Z,3.05
2022-09-01T23:13:59.748Z,3.70
2022-09-01T23:16:04.197Z,3.38
2022-09-01T23:18:06.870Z,3.22
2022-09-01T23:20:13.095Z,3.47
2022-09-01T23:22:15.688Z,2.97
2022-09-01T23:24:20.048Z,3.35
2022-09-01T23:26:23.071Z,3.50
2022-09-01T23:28:25.678Z,3.50
2022-09-01T23:30:28.300Z,3.47
2022-09-01T23:32:33.372Z,3.50
2022-09-01T23:34:35.999Z,3.70
2022-09-01T23:36:38.756Z,3.45
2022-09-01T23:38:42.035Z,3.88
2022-09-01T23:40:48.465Z,3.63
2022-09-01T23:42:51.070Z,3.60
2022-09-01T23:44:53.837Z,4.30
2022-09-01T23:46:56.455Z,3.10
2022-09-01T23:48:59.733Z,3.40
2022-09-01T23:51:09.248Z,3.15
2022-09-01T23:53:12.425Z,3.15
2022-09-01T23:55:15.049Z,3.28
2022-09-01T23:57:19.068Z,3.30
2022-09-01T23:59:27.536Z,3.90
